createdAt,value
2023-04-15T07:46:22.021Z,84.65
2023-04-15T07:48:49.543Z,84.60
2023-04-15T07:51:16.585Z,84.35
2023-04-15T07:53:43.682Z,83.72
2023-04-15T07:56:10.821Z,83.41
2023-04-15T07:58:37.822Z,82.94
2023-04-15T08:01:05.127Z,82.43
2023-04-15T08:03:33.862Z,82.22
2023-04-15T08:06:01.105Z,81.86
2023-04-15T08:08:28.262Z,81.09
2023-04-15T08:10:55.347Z,80.86
2023-04-15T08:13:22.382Z,80.59
2023-04-15T08:16:14.830Z,80.20
2023-04-15T08:18:43.477Z,80.58
2023-04-15T08:21:10.540Z,80.59
2023-04-15T08:23:38.032Z,80.23
2023-04-15T08:26:05.242Z,80.06
2023-04-15T08:28:32.319Z,80.88
2023-04-15T08:30:59.465Z,80.38
2023-04-15T08:33:26.508Z,80.23
2023-04-15T08:35:54.999Z,80.02
2023-04-15T08:38:22.081Z,78.94
2023-04-15T08:40:49.240Z,79.44
2023-04-15T08:43:21.263Z,78.08
2023-04-15T08:45:48.401Z,78.29
2023-04-15T08:48:15.662Z,79.00
2023-04-15T08:50:42.721Z,79.05
2023-04-15T08:53:11.363Z,78.64
2023-04-15T08:55:42.531Z,79.11
2023-04-15T11:52:17.788Z,70.82
2023-04-15T11:54:45.047Z,69.30
2023-04-15T11:57:12.183Z,68.29
2023-04-15T11:59:45.202Z,69.58
2023-04-15T12:02:13.328Z,70.29
2023-04-15T12:04:40.725Z,71.16
2023-04-15T12:07:08.141Z,68.63
2023-04-15T12:09:39.313Z,68.18
2023-04-15T12:12:06.576Z,68.89
2023-04-15T12:14:33.774Z,69.63
2023-04-15T12:17:01.777Z,70.58
2023-04-15T12:19:29.399Z,69.51
2023-04-15T12:22:00.476Z,69.66
2023-04-15T12:24:27.964Z,69.18
2023-04-15T12:26:57.446Z,69.58
2023-04-15T12:29:26.239Z,69.59
2023-04-15T12:31:53.894Z,69.53
2023-04-15T12:34:27.013Z,71.65
2023-04-15T12:36:54.138Z,71.13
2023-04-15T12:39:22.993Z,69.70
2023-04-15T12:41:50.179Z,70.35
2023-04-15T12:44:18.830Z,69.52
2023-04-15T12:46:46.024Z,69.14
2023-04-15T12:49:13.319Z,69.11
2023-04-15T12:51:40.417Z,68.05
2023-04-15T12:54:07.551Z,68.45
2023-04-15T12:56:34.734Z,68.47
2023-04-15T12:59:01.960Z,70.02
2023-04-15T13:01:30.547Z,67.24
2023-04-15T13:03:57.751Z,67.18
2023-04-15T13:06:24.985Z,66.28
2023-04-15T13:08:58.312Z,66.14
2023-04-15T13:11:25.904Z,64.93
2023-04-15T13:13:53.165Z,64.83
2023-04-15T13:16:20.417Z,66.20
2023-04-15T13:18:49.088Z,66.71
2023-04-15T13:21:16.278Z,65.87
2023-04-15T13:23:43.560Z,64.99
2023-04-15T13:26:10.766Z,64.73
2023-04-15T13:28:37.979Z,66.38
2023-04-15T13:31:05.647Z,67.33
2023-04-15T13:33:32.839Z,67.79
2023-04-15T13:36:01.572Z,68.08
2023-04-15T13:38:28.805Z,69.16
2023-04-15T13:40:57.442Z,69.61
2023-04-15T13:43:24.619Z,69.89
2023-04-15T13:45:51.739Z,68.85
2023-04-15T13:48:18.943Z,68.48
2023-04-15T13:50:46.121Z,69.15
2023-04-15T13:53:14.580Z,69.72
2023-04-15T13:55:41.747Z,68.85
2023-04-15T13:58:08.936Z,69.41
2023-04-15T14:00:36.068Z,69.03
2023-04-15T14:03:03.434Z,68.69
2023-04-15T14:05:30.603Z,69.56
2023-04-15T14:07:57.641Z,68.47
2023-04-15T14:10:26.222Z,67.80
2023-04-15T14:12:53.409Z,67.80
2023-04-15T14:15:20.522Z,66.98
2023-04-15T14:17:47.660Z,67.05
2023-04-15T14:20:16.766Z,66.98
2023-04-15T14:22:44.344Z,69.39
2023-04-15T14:25:17.287Z,69.90
2023-04-15T14:27:51.879Z,69.88
2023-04-15T14:30:19.073Z,70.55
2023-04-15T14:32:46.232Z,70.47
2023-04-15T14:35:13.504Z,70.55
2023-04-15T14:37:40.579Z,69.70
2023-04-15T14:40:09.200Z,69.30
2023-04-15T14:42:36.831Z,69.70
2023-04-15T14:45:06.272Z,71.31
2023-04-15T14:47:33.524Z,70.52
2023-04-15T14:50:00.756Z,70.40
2023-04-15T14:52:27.916Z,70.20
2023-04-15T14:54:55.038Z,70.37
2023-04-15T14:57:22.206Z,68.84
2023-04-15T14:59:49.297Z,70.39
2023-04-15T15:02:36.805Z,70.04
2023-04-15T15:05:05.539Z,68.88
2023-04-15T15:07:32.756Z,70.55
2023-04-15T15:09:59.875Z,70.33
2023-04-15T15:12:26.931Z,70.08
2023-04-15T15:14:55.216Z,70.91
2023-04-15T15:17:23.906Z,72.53
2023-04-15T15:19:51.121Z,74.12
2023-04-15T15:22:20.174Z,72.88
2023-04-15T15:24:48.335Z,74.08
2023-04-15T15:27:15.409Z,75.49
2023-04-15T15:29:42.532Z,76.53
2023-04-15T15:32:09.637Z,76.39
2023-04-15T15:34:38.315Z,76.59
2023-04-15T15:37:05.355Z,76.48
2023-04-15T15:39:32.497Z,74.41
2023-04-15T15:41:59.556Z,72.51
2023-04-15T15:44:26.695Z,75.12
2023-04-15T15:46:53.800Z,73.81
2023-04-15T15:49:20.920Z,75.24
2023-04-15T15:51:49.474Z,75.55
2023-04-15T15:54:16.622Z,76.01
2023-04-15T15:56:43.796Z,76.37
2023-04-15T15:59:10.876Z,76.32
2023-04-15T16:01:38.040Z,75.37
2023-04-15T16:04:05.363Z,73.73
2023-04-15T16:06:34.887Z,71.10
2023-04-15T16:09:04.155Z,72.57
2023-04-15T16:11:31.614Z,72.60
2023-04-15T16:13:58.902Z,72.46
2023-04-15T16:16:27.661Z,70.26
2023-04-15T16:18:54.940Z,71.63
2023-04-15T16:21:22.104Z,71.18
2023-04-15T16:23:49.160Z,72.30
2023-04-15T16:26:17.760Z,72.05
2023-04-15T16:28:44.999Z,73.08
2023-04-15T16:31:12.159Z,72.70
2023-04-15T16:33:39.345Z,72.01
2023-04-15T16:36:06.703Z,74.75
2023-04-15T16:38:33.879Z,73.76
2023-04-15T16:41:01.320Z,74.24
2023-04-15T16:43:29.921Z,73.21
2023-04-15T16:45:57.079Z,74.41
2023-04-15T16:48:24.282Z,73.54
2023-04-15T16:50:51.394Z,73.09
2023-04-15T16:53:18.478Z,74.84
2023-04-15T16:55:45.753Z,73.75
2023-04-15T16:58:12.955Z,75.17
2023-04-15T17:00:41.643Z,76.48
2023-04-15T17:03:08.977Z,75.62
2023-04-15T17:05:36.244Z,76.71
2023-04-15T17:08:04.670Z,78.22
2023-04-15T17:10:31.907Z,77.97
2023-04-15T17:12:59.304Z,76.61
2023-04-15T17:15:26.659Z,75.84
2023-04-15T17:17:55.406Z,75.59
2023-04-15T17:20:22.697Z,75.06
2023-04-15T17:22:49.998Z,77.01
2023-04-15T17:25:17.252Z,77.30
2023-04-15T17:27:44.596Z,77.51
2023-04-15T17:30:12.069Z,78.06
2023-04-15T17:32:39.475Z,75.93
2023-04-15T17:35:09.206Z,76.24
2023-04-15T17:37:36.491Z,76.99
2023-04-15T17:40:05.843Z,78.45
2023-04-15T17:42:34.629Z,77.42
2023-04-15T17:45:01.815Z,76.95
2023-04-15T17:47:29.160Z,78.26
2023-04-15T17:49:56.375Z,79.99
2023-04-15T17:52:25.009Z,79.13
2023-04-15T17:54:52.148Z,78.70
2023-04-15T17:57:19.433Z,78.59
2023-04-15T17:59:46.627Z,77.92
2023-04-15T18:02:14.077Z,76.54
2023-04-15T18:04:41.573Z,77.57
2023-04-15T18:07:08.975Z,78.47
2023-04-15T18:09:37.628Z,78.56
2023-04-15T18:12:05.158Z,78.86
2023-04-15T18:14:35.042Z,78.01
2023-04-15T18:17:02.529Z,79.03
2023-04-15T18:19:30.115Z,79.57
2023-04-15T18:21:57.326Z,79.96
2023-04-15T18:24:24.481Z,80.67
2023-04-15T18:26:53.185Z,80.09
2023-04-15T18:29:20.343Z,79.78
2023-04-15T18:31:47.634Z,78.48
2023-04-15T18:34:14.959Z,77.27
2023-04-15T18:36:42.282Z,78.10
2023-04-15T18:39:09.455Z,76.98
2023-04-15T18:41:36.653Z,78.19
2023-04-15T18:44:05.319Z,77.96
2023-04-15T18:46:32.550Z,77.58
2023-04-15T18:48:59.841Z,79.38
2023-04-15T18:51:27.030Z,79.81
2023-04-15T18:53:54.278Z,79.63
2023-04-15T18:56:21.536Z,79.85
2023-04-15T18:59:11.611Z,79.22
2023-04-15T19:01:37.514Z,79.09
2023-04-15T19:04:04.804Z,79.96
2023-04-15T19:06:32.059Z,81.03
2023-04-15T19:08:59.383Z,81.30
2023-04-15T19:11:26.636Z,80.84
2023-04-15T19:13:53.876Z,80.67
2023-04-15T19:16:21.148Z,80.38
2023-04-15T19:18:49.853Z,79.62
2023-04-15T19:21:17.023Z,79.39
2023-04-15T19:23:44.246Z,80.01
2023-04-15T19:26:12.001Z,79.83
2023-04-15T19:28:39.271Z,80.96
2023-04-15T19:31:06.517Z,80.43
2023-04-15T19:33:33.879Z,81.29
2023-04-15T19:36:03.402Z,80.64
2023-04-15T19:38:30.678Z,78.94
2023-04-15T19:40:57.993Z,78.44
2023-04-15T19:43:25.226Z,78.78
2023-04-15T19:45:52.487Z,78.37
2023-04-15T19:48:19.807Z,78.86
2023-04-15T19:50:47.109Z,78.00
2023-04-15T19:53:15.772Z,80.58
2023-04-15T19:55:42.994Z,81.81
2023-04-15T19:58:10.217Z,82.36
2023-04-15T20:00:37.501Z,82.92
2023-04-15T20:03:04.980Z,82.40
2023-04-15T20:05:32.288Z,80.79
2023-04-15T20:08:00.590Z,80.99
2023-04-15T20:10:29.360Z,80.70
2023-04-15T20:12:56.481Z,80.78
2023-04-15T20:15:24.132Z,80.44
2023-04-15T20:17:51.616Z,81.71
2023-04-15T20:20:18.837Z,81.42
2023-04-15T20:22:46.181Z,80.68
2023-04-15T20:25:13.484Z,79.64
2023-04-15T20:27:42.110Z,80.20
2023-04-15T20:30:10.097Z,79.77
2023-04-15T20:32:37.404Z,80.80
2023-04-15T20:35:05.002Z,81.04
